createdAt,value
2022-09-16T00:02:14.447Z,5.30
2022-09-16T00:04:43.110Z,5.68
2022-09-16T00:07:11.707Z,5.63
2022-09-16T00:09:40.610Z,5.10
2022-09-16T00:12:09.209Z,5.18
2022-09-16T00:14:39.374Z,5.43
2022-09-16T00:17:07.905Z,5.63
2022-09-16T00:19:36.337Z,5.47
2022-09-16T00:22:04.925Z,5.53
2022-09-16T00:24:33.500Z,5.70
2022-09-16T00:27:02.043Z,5.78
2022-09-16T00:29:30.857Z,5.50
2022-09-16T00:32:00.818Z,6.65
2022-09-16T00:34:29.260Z,5.72
2022-09-16T00:36:57.835Z,5.25
2022-09-16T00:39:26.477Z,5.35
2022-09-16T00:41:55.023Z,5.28
2022-09-16T00:44:56.788Z,5.68
2022-09-16T00:47:31.838Z,6.00
2022-09-16T00:50:05.639Z,5.10
2022-09-16T00:52:34.127Z,5.53
2022-09-16T00:55:04.072Z,5.43
2022-09-16T00:57:32.570Z,5.05
2022-09-16T01:00:01.008Z,5.50
2022-09-16T01:02:31.126Z,5.05
2022-09-16T01:05:02.255Z,5.22
2022-09-16T01:07:34.341Z,5.30
2022-09-16T01:10:02.809Z,5.43
2022-09-16T01:12:31.503Z,5.40
2022-09-16T01:14:59.973Z,4.82
2022-09-16T01:18:14.567Z,4.70
2022-09-16T01:21:19.376Z,5.30
2022-09-16T01:24:34.395Z,5.38
2022-09-16T01:27:19.853Z,5.35
2022-09-16T01:30:42.347Z,5.50
2022-09-16T01:33:15.852Z,5.43
2022-09-16T01:36:04.431Z,5.20
2022-09-16T01:38:46.394Z,5.07
2022-09-16T01:41:19.698Z,5.50
2022-09-16T01:43:54.835Z,5.10
2022-09-16T01:46:29.240Z,6.25
2022-09-16T01:49:00.095Z,5.05
2022-09-16T01:51:31.845Z,4.88
2022-09-16T01:54:04.931Z,5.30
2022-09-16T01:56:38.642Z,5.40
2022-09-16T01:59:09.482Z,5.45
2022-09-16T02:01:43.309Z,4.78
2022-09-16T02:04:15.026Z,5.00
2022-09-16T02:06:45.802Z,5.00
2022-09-16T02:09:17.680Z,5.10
2022-09-16T02:11:46.783Z,5.35
2022-09-16T02:14:16.626Z,4.75
2022-09-16T02:16:49.889Z,4.60
2022-09-16T02:19:22.214Z,5.53
2022-09-16T02:21:51.298Z,4.90
2022-09-16T02:24:20.972Z,5.18
2022-09-16T02:26:54.122Z,4.65
2022-09-16T02:29:25.668Z,4.88
2022-09-16T02:31:59.666Z,5.05
2022-09-16T02:34:29.798Z,4.78
2022-09-16T02:37:01.797Z,4.47
2022-09-16T02:39:32.266Z,7.32
2022-09-16T02:42:00.813Z,4.60
2022-09-16T02:44:29.764Z,4.93
2022-09-16T02:47:03.562Z,4.65
2022-09-16T02:49:37.664Z,4.20
2022-09-16T02:52:12.541Z,4.78
2022-09-16T02:54:45.270Z,4.30
2022-09-16T02:57:14.370Z,4.35
2022-09-16T02:59:43.967Z,4.45
2022-09-16T03:02:15.111Z,4.82
2022-09-16T03:04:44.336Z,4.55
2022-09-16T03:07:13.446Z,4.50
2022-09-16T03:09:44.018Z,4.25
2022-09-16T03:12:32.849Z,4.25
2022-09-16T03:15:47.427Z,4.00
2022-09-16T03:18:41.388Z,4.35
2022-09-16T03:21:16.455Z,4.65
2022-09-16T03:23:50.956Z,4.57
2022-09-16T03:26:26.644Z,4.60
2022-09-16T03:29:04.745Z,4.38
2022-09-16T03:31:37.382Z,4.05
2022-09-16T03:34:10.567Z,4.30
2022-09-16T03:36:41.962Z,4.53
2022-09-16T03:39:11.878Z,3.92
2022-09-16T03:41:40.902Z,3.72
2022-09-16T03:44:10.307Z,4.00
2022-09-16T03:46:42.326Z,4.00
2022-09-16T03:49:12.844Z,3.90
2022-09-16T03:51:42.709Z,3.53
2022-09-16T03:54:13.359Z,3.90
2022-09-16T03:56:42.969Z,4.82
2022-09-16T03:59:13.476Z,4.22
2022-09-16T04:01:43.196Z,4.32
2022-09-16T04:04:14.020Z,4.15
2022-09-16T04:06:43.299Z,3.95
2022-09-16T04:09:13.632Z,3.92
2022-09-16T04:11:44.310Z,4.10
2022-09-16T04:14:13.669Z,4.05
2022-09-16T04:16:45.122Z,3.40
2022-09-16T04:19:16.539Z,4.15
2022-09-16T04:21:46.584Z,4.00
2022-09-16T04:24:16.545Z,3.50
2022-09-16T04:26:45.576Z,3.80
2022-09-16T04:29:15.457Z,4.13
2022-09-16T04:31:45.066Z,3.70
2022-09-16T04:34:17.707Z,3.97
2022-09-16T04:36:50.626Z,3.83
2022-09-16T04:39:20.315Z,3.92
2022-09-16T04:41:50.848Z,3.47
2022-09-16T04:44:20.661Z,4.20
2022-09-16T04:46:50.346Z,3.95
2022-09-16T04:49:20.791Z,3.67
2022-09-16T04:51:50.903Z,3.80
2022-09-16T04:54:21.173Z,3.80
2022-09-16T04:56:51.405Z,3.95
2022-09-16T04:59:21.321Z,3.72
2022-09-16T05:01:50.788Z,3.97
2022-09-16T05:04:21.979Z,3.60
2022-09-16T05:06:51.057Z,3.70
2022-09-16T05:09:23.180Z,3.60
2022-09-16T05:11:52.075Z,3.85
2022-09-16T05:14:21.417Z,3.90
2022-09-16T05:16:51.008Z,3.88
2022-09-16T05:19:22.133Z,4.90
2022-09-16T05:21:52.811Z,3.80
2022-09-16T05:24:23.845Z,3.55
2022-09-16T05:26:52.996Z,3.78
2022-09-16T05:29:23.058Z,4.13
2022-09-16T05:31:53.793Z,8.85
2022-09-16T05:34:28.726Z,3.50
2022-09-16T05:37:00.995Z,7.28
2022-09-16T05:39:31.694Z,3.83
2022-09-16T05:42:04.041Z,4.82
2022-09-16T05:44:33.708Z,4.40
2022-09-16T05:47:03.539Z,4.95
2022-09-16T05:49:34.139Z,3.72
2022-09-16T05:52:10.108Z,3.55
2022-09-16T05:54:41.031Z,3.67
2022-09-16T05:57:14.733Z,3.78
2022-09-16T05:59:44.994Z,4.20
2022-09-16T06:02:14.206Z,3.60
2022-09-16T06:04:45.308Z,35.50
2022-09-16T06:07:14.599Z,33.17
2022-09-16T06:09:44.396Z,44.65
2022-09-16T06:12:14.771Z,42.05
2022-09-16T06:14:48.407Z,26.00
2022-09-16T06:17:18.382Z,29.80
2022-09-16T06:19:50.885Z,19.88
2022-09-16T06:22:20.535Z,22.65
2022-09-16T06:24:50.118Z,16.50
2022-09-16T06:27:19.792Z,12.77
2022-09-16T06:29:51.824Z,9.07
2022-09-16T06:32:21.383Z,14.20
2022-09-16T06:34:58.253Z,13.52
2022-09-16T06:37:37.746Z,11.40
2022-09-16T06:40:22.005Z,11.23
2022-09-16T06:42:59.982Z,13.60
2022-09-16T06:45:30.482Z,7.65
2022-09-16T06:48:02.744Z,8.05
2022-09-16T06:50:33.166Z,10.63
2022-09-16T06:53:02.822Z,8.68
2022-09-16T06:55:31.874Z,9.32
2022-09-16T06:58:00.555Z,7.75
2022-09-16T07:00:29.084Z,11.82
2022-09-16T07:02:57.479Z,9.48
2022-09-16T07:05:26.162Z,7.50
2022-09-16T07:07:55.995Z,6.85
2022-09-16T07:10:25.359Z,8.60
2022-09-16T07:12:53.949Z,8.75
2022-09-16T07:15:22.346Z,8.95
2022-09-16T07:17:56.139Z,6.07
2022-09-16T07:20:24.584Z,8.60
2022-09-16T07:22:54.086Z,6.70
2022-09-16T07:25:23.855Z,7.85
2022-09-16T07:27:52.289Z,9.68
2022-09-16T07:30:20.770Z,9.82
2022-09-16T07:32:49.247Z,8.73
2022-09-16T07:35:17.956Z,5.28
2022-09-16T07:37:46.466Z,6.38
2022-09-16T07:40:15.399Z,9.70
2022-09-16T07:42:45.366Z,6.63
2022-09-16T07:45:13.839Z,7.35
2022-09-16T07:47:42.330Z,6.10
2022-09-16T07:50:11.531Z,5.35
2022-09-16T07:52:40.095Z,8.20
2022-09-16T07:55:09.028Z,8.43
2022-09-16T07:57:37.448Z,6.40
2022-09-16T08:00:09.889Z,6.22
2022-09-16T08:02:38.731Z,11.43
2022-09-16T08:05:09.298Z,5.70
2022-09-16T08:07:37.980Z,6.22
2022-09-16T08:10:07.517Z,5.10
2022-09-16T08:12:38.997Z,6.95
2022-09-16T08:15:11.369Z,5.72
2022-09-16T08:17:39.796Z,5.57
2022-09-16T08:20:09.183Z,7.28
2022-09-16T08:22:37.577Z,6.10
2022-09-16T08:25:07.331Z,6.90
2022-09-16T08:27:36.811Z,5.75
2022-09-16T08:30:05.993Z,6.60
2022-09-16T08:32:35.849Z,6.72
2022-09-16T08:35:04.548Z,5.50
2022-09-16T08:37:33.022Z,5.38
2022-09-16T08:40:01.639Z,6.97
2022-09-16T08:42:44.028Z,5.47
2022-09-16T08:45:23.082Z,5.03
2022-09-16T08:48:04.300Z,5.40
2022-09-16T08:50:36.931Z,6.90
2022-09-16T08:53:08.838Z,6.97
2022-09-16T08:55:40.469Z,28.95
2022-09-16T08:58:14.341Z,27.23
2022-09-16T09:00:43.641Z,11.88
2022-09-16T09:03:18.782Z,9.57
2022-09-16T09:05:51.976Z,11.38
2022-09-16T09:08:40.622Z,11.48
2022-09-16T09:11:14.315Z,10.07
2022-09-16T09:13:53.358Z,10.23
2022-09-16T09:16:31.400Z,12.13
2022-09-16T09:19:20.572Z,18.45
2022-09-16T09:21:54.953Z,20.70
2022-09-16T09:24:42.276Z,18.05
2022-09-16T09:27:16.558Z,13.05
2022-09-16T09:29:58.565Z,21.10
2022-09-16T09:32:48.044Z,19.33
2022-09-16T09:35:32.433Z,16.40
2022-09-16T09:38:31.237Z,16.65
2022-09-16T09:41:03.710Z,15.98
2022-09-16T09:43:36.206Z,15.70
2022-09-16T09:46:08.785Z,16.40
2022-09-16T09:48:39.682Z,18.45
2022-09-16T09:51:16.336Z,16.50
2022-09-16T09:53:46.938Z,18.80
2022-09-16T09:56:18.776Z,18.92
2022-09-16T09:58:52.716Z,14.82
2022-09-16T10:01:21.340Z,17.60
2022-09-16T10:03:50.107Z,19.58
2022-09-16T10:06:19.911Z,27.52
2022-09-16T10:08:51.082Z,15.65
2022-09-16T10:11:21.288Z,16.48
2022-09-16T10:13:50.798Z,14.02
2022-09-16T10:16:20.834Z,16.58
2022-09-16T10:18:57.893Z,16.35
2022-09-16T10:21:38.900Z,50.35
2022-09-16T10:24:07.771Z,43.50
2022-09-16T10:26:41.695Z,31.10
2022-09-16T10:29:18.062Z,24.02
2022-09-16T10:31:46.628Z,21.80
2022-09-16T10:34:19.295Z,21.80
2022-09-16T10:36:59.485Z,20.95
2022-09-16T10:39:28.446Z,19.23
2022-09-16T10:41:56.930Z,19.08
2022-09-16T10:44:28.376Z,19.52
2022-09-16T10:46:58.844Z,19.70
2022-09-16T10:49:36.107Z,22.35
2022-09-16T10:52:17.514Z,21.10
2022-09-16T10:54:46.164Z,19.20
2022-09-16T10:57:29.105Z,21.20
2022-09-16T11:00:09.635Z,20.52
2022-09-16T11:03:30.204Z,21.50
2022-09-16T11:06:08.868Z,20.27
2022-09-16T11:08:50.737Z,19.00
2022-09-16T11:11:58.075Z,26.20
2022-09-16T11:14:37.442Z,22.90
2022-09-16T11:17:21.202Z,19.17
2022-09-16T11:20:02.148Z,22.02
2022-09-16T11:22:33.521Z,17.20
2022-09-16T11:25:29.260Z,21.48
2022-09-16T11:28:04.077Z,19.10
2022-09-16T11:30:35.031Z,20.80
2022-09-16T11:33:16.975Z,21.35
2022-09-16T11:36:07.482Z,14.75
2022-09-16T11:38:43.813Z,16.92
2022-09-16T11:41:22.684Z,13.23
2022-09-16T11:44:31.426Z,16.00
2022-09-16T11:47:11.895Z,13.00
2022-09-16T11:49:57.577Z,12.95
2022-09-16T11:52:40.093Z,12.75
2022-09-16T11:55:33.027Z,14.85
2022-09-16T11:58:21.852Z,12.23
2022-09-16T12:00:50.489Z,14.45
2022-09-16T12:03:24.327Z,13.48
2022-09-16T12:05:56.943Z,13.75
2022-09-16T12:08:29.367Z,10.15
2022-09-16T12:10:59.448Z,14.07
2022-09-16T12:13:32.165Z,9.13
2022-09-16T12:16:03.823Z,11.07
2022-09-16T12:18:34.146Z,10.98
2022-09-16T12:21:08.581Z,12.00
2022-09-16T12:23:41.594Z,10.20
2022-09-16T12:26:12.489Z,9.63
2022-09-16T12:28:47.962Z,8.93
2022-09-16T12:31:23.620Z,9.63
2022-09-16T12:33:55.658Z,11.20
2022-09-16T12:36:26.310Z,10.98
2022-09-16T12:38:54.914Z,11.90
2022-09-16T12:41:51.933Z,9.90
2022-09-16T12:44:56.261Z,9.95
2022-09-16T12:48:16.818Z,10.82
2022-09-16T12:50:53.870Z,9.32
2022-09-16T12:53:54.988Z,14.68
2022-09-16T12:56:40.071Z,6.93
2022-09-16T12:59:59.765Z,9.82
2022-09-16T13:02:32.133Z,10.13
2022-09-16T13:05:03.729Z,5.28
2022-09-16T13:07:35.598Z,5.32
2022-09-16T13:10:05.721Z,8.38
2022-09-16T13:12:42.797Z,7.00
2022-09-16T13:15:26.917Z,9.50
2022-09-16T13:17:55.812Z,7.53
2022-09-16T13:20:29.003Z,5.93
2022-09-16T13:23:07.049Z,8.45
2022-09-16T13:25:38.215Z,10.63
2022-09-16T13:28:28.597Z,5.45
2022-09-16T13:30:58.586Z,12.73
2022-09-16T13:33:29.566Z,8.00
2022-09-16T13:36:14.888Z,5.50
2022-09-16T13:38:45.583Z,4.97
2022-09-16T13:41:15.069Z,7.57
2022-09-16T13:43:54.665Z,4.72
2022-09-16T13:46:34.810Z,11.65
2022-09-16T13:49:21.730Z,4.80
2022-09-16T13:51:51.686Z,7.88
2022-09-16T13:54:28.582Z,4.50
2022-09-16T13:57:15.919Z,4.10
2022-09-16T13:59:57.450Z,3.80
2022-09-16T14:02:36.450Z,4.25
2022-09-16T14:05:29.956Z,4.80
2022-09-16T14:08:01.186Z,3.67
2022-09-16T14:10:35.445Z,5.43
2022-09-16T14:13:11.084Z,4.72
2022-09-16T14:15:42.914Z,4.25
2022-09-16T14:18:14.838Z,4.60
2022-09-16T14:20:54.516Z,5.28
2022-09-16T14:23:25.279Z,5.60
2022-09-16T14:25:55.571Z,5.28
2022-09-16T14:28:25.281Z,4.47
2022-09-16T14:30:56.347Z,5.28
2022-09-16T14:33:30.388Z,3.70
2022-09-16T14:36:00.006Z,5.53
2022-09-16T14:41:27.120Z,9.07
2022-09-16T14:43:55.619Z,4.03
2022-09-16T14:46:24.125Z,4.65
2022-09-16T14:48:54.153Z,3.88
2022-09-16T14:51:25.987Z,4.38
2022-09-16T14:54:12.558Z,4.15
2022-09-16T14:56:41.709Z,3.53
2022-09-16T14:59:12.649Z,6.72
2022-09-16T15:01:41.139Z,6.22
2022-09-16T15:04:15.886Z,7.07
2022-09-16T15:06:46.965Z,5.47
2022-09-16T15:09:19.745Z,7.80
2022-09-16T15:11:52.034Z,5.45
2022-09-16T15:14:20.439Z,5.10
2022-09-16T15:16:50.437Z,5.88
2022-09-16T15:19:22.414Z,5.22
2022-09-16T15:21:50.978Z,4.38
2022-09-16T15:24:23.133Z,6.32
2022-09-16T15:26:52.777Z,4.60
2022-09-16T15:29:32.879Z,10.13
2022-09-16T15:32:22.602Z,5.32
2022-09-16T15:35:10.548Z,4.85
2022-09-16T15:37:39.137Z,4.68
2022-09-16T15:40:20.652Z,4.28
2022-09-16T15:42:50.221Z,4.25
2022-09-16T15:45:19.973Z,4.57
2022-09-16T15:47:59.597Z,6.68
2022-09-16T15:50:30.426Z,4.85
2022-09-16T15:53:01.227Z,7.85
2022-09-16T15:55:36.541Z,4.85
2022-09-16T15:58:09.019Z,7.28
2022-09-16T16:01:01.370Z,4.78
2022-09-16T16:03:33.883Z,5.13
2022-09-16T16:06:05.243Z,6.43
2022-09-16T16:08:47.290Z,5.28
2022-09-16T16:11:17.013Z,7.05
2022-09-16T16:13:45.605Z,7.35
2022-09-16T16:16:15.530Z,6.05
2022-09-16T16:18:44.733Z,16.38
2022-09-16T16:21:16.486Z,16.58
2022-09-16T16:23:45.081Z,8.13
2022-09-16T16:26:13.577Z,11.88
2022-09-16T16:28:42.047Z,11.32
2022-09-16T16:31:15.876Z,13.32
2022-09-16T16:33:45.746Z,11.13
2022-09-16T16:36:16.804Z,7.80
2022-09-16T16:38:46.399Z,8.35
2022-09-16T16:41:14.835Z,7.57
2022-09-16T16:43:43.339Z,7.47
2022-09-16T16:46:12.024Z,5.63
2022-09-16T16:48:40.513Z,5.90
2022-09-16T16:51:10.984Z,5.20
2022-09-16T16:53:40.812Z,7.25
2022-09-16T16:56:14.773Z,5.18
2022-09-16T16:58:44.176Z,6.57
2022-09-16T17:01:16.421Z,5.40
2022-09-16T17:03:46.502Z,4.63
2022-09-16T17:06:15.069Z,5.65
2022-09-16T17:08:44.937Z,4.03
2022-09-16T17:11:14.741Z,4.57
2022-09-16T17:13:44.693Z,4.30
2022-09-16T17:16:14.697Z,9.57
2022-09-16T17:18:43.556Z,4.20
2022-09-16T17:21:14.331Z,6.82
2022-09-16T17:23:44.087Z,5.03
2022-09-16T17:26:12.885Z,5.65
2022-09-16T17:28:42.199Z,8.45
2022-09-16T17:31:11.409Z,5.70
2022-09-16T17:33:39.842Z,6.15
2022-09-16T17:36:09.585Z,7.03
2022-09-16T17:38:38.198Z,4.60
2022-09-16T17:41:09.530Z,4.88
2022-09-16T17:43:38.126Z,7.50
2022-09-16T17:46:08.763Z,4.43
2022-09-16T17:48:38.082Z,4.60
2022-09-16T17:51:07.219Z,4.05
2022-09-16T17:53:35.947Z,4.45
2022-09-16T17:56:09.166Z,4.20
2022-09-16T17:58:38.770Z,7.32
2022-09-16T18:01:11.539Z,27.63
2022-09-16T18:03:40.943Z,10.90
2022-09-16T18:06:12.117Z,32.80
2022-09-16T18:08:40.835Z,34.42
2022-09-16T18:11:11.738Z,45.33
2022-09-16T18:13:40.304Z,44.83
2022-09-16T18:16:11.913Z,40.03
2022-09-16T18:18:42.237Z,51.33
2022-09-16T18:21:14.469Z,32.90
2022-09-16T18:23:43.087Z,29.73
2022-09-16T18:26:15.472Z,22.85
2022-09-16T18:29:07.966Z,31.25
2022-09-16T18:31:33.984Z,35.65
2022-09-16T18:34:03.119Z,28.65
2022-09-16T18:36:32.942Z,24.60
2022-09-16T18:39:01.429Z,25.48
2022-09-16T18:41:33.934Z,23.95
2022-09-16T18:44:07.779Z,22.13
2022-09-16T18:46:37.970Z,20.45
2022-09-16T18:49:06.786Z,22.58
2022-09-16T18:51:37.009Z,21.90
2022-09-16T18:54:07.268Z,19.45
2022-09-16T18:56:38.027Z,23.25
2022-09-16T18:59:23.959Z,19.77
2022-09-16T19:01:54.825Z,27.40
2022-09-16T19:04:26.912Z,15.73
2022-09-16T19:06:58.915Z,20.15
2022-09-16T19:09:27.593Z,19.05
2022-09-16T19:11:57.767Z,21.33
2022-09-16T19:14:27.626Z,14.95
2022-09-16T19:16:56.432Z,19.05
2022-09-16T19:19:24.906Z,17.80
2022-09-16T19:21:56.631Z,18.30
2022-09-16T19:24:27.075Z,16.13
2022-09-16T19:26:57.362Z,21.35
2022-09-16T19:29:26.291Z,15.52
2022-09-16T19:31:55.099Z,17.85
2022-09-16T19:34:23.874Z,43.88
2022-09-16T19:36:52.725Z,11.68
2022-09-16T19:39:21.544Z,17.00
2022-09-16T19:41:50.368Z,12.88
2022-09-16T19:44:20.444Z,13.93
2022-09-16T19:46:49.947Z,16.95
2022-09-16T19:49:20.810Z,12.52
2022-09-16T19:51:50.017Z,15.32
2022-09-16T19:54:18.993Z,14.23
2022-09-16T19:56:50.666Z,13.32
2022-09-16T19:59:21.178Z,15.13
2022-09-16T20:01:50.221Z,14.48
2022-09-16T20:04:20.509Z,11.57
2022-09-16T20:06:49.882Z,13.40
2022-09-16T20:09:19.810Z,9.93
2022-09-16T20:11:49.153Z,12.10
2022-09-16T20:14:20.442Z,11.18
2022-09-16T20:16:50.119Z,12.45
2022-09-16T20:19:20.090Z,10.95
2022-09-16T20:21:49.124Z,12.10
2022-09-16T20:24:19.202Z,12.18
2022-09-16T20:26:48.247Z,10.38
2022-09-16T20:29:18.061Z,12.90
2022-09-16T20:31:48.630Z,10.40
2022-09-16T20:34:17.634Z,9.82
2022-09-16T20:36:46.597Z,10.30
2022-09-16T20:39:15.514Z,11.80
2022-09-16T20:41:45.735Z,9.38
2022-09-16T20:44:15.841Z,10.38
2022-09-16T20:46:44.799Z,11.93
2022-09-16T20:49:16.598Z,9.57
2022-09-16T20:51:45.418Z,7.40
2022-09-16T20:54:15.183Z,8.93
2022-09-16T20:56:44.649Z,9.15
2022-09-16T20:59:14.159Z,11.57
2022-09-16T21:01:43.008Z,9.77
2022-09-16T21:04:14.899Z,8.45
2022-09-16T21:06:43.744Z,6.38
2022-09-16T21:09:13.715Z,8.00
2022-09-16T21:11:43.788Z,9.07
2022-09-16T21:14:14.759Z,9.10
2022-09-16T21:16:43.703Z,11.70
2022-09-16T21:19:14.143Z,7.07
2022-09-16T21:21:44.483Z,7.68
2022-09-16T21:24:13.717Z,10.10
2022-09-16T21:26:44.005Z,8.18
2022-09-16T21:29:15.395Z,9.52
2022-09-16T21:31:44.604Z,6.88
2022-09-16T21:34:16.581Z,8.75
2022-09-16T21:36:45.395Z,8.50
2022-09-16T21:39:14.861Z,8.57
2022-09-16T21:41:43.551Z,9.15
2022-09-16T21:44:12.574Z,7.88
2022-09-16T21:46:45.312Z,7.10
2022-09-16T21:49:22.580Z,6.63
2022-09-16T21:51:52.061Z,7.40
2022-09-16T21:54:21.089Z,7.80
2022-09-16T21:56:50.259Z,6.65
2022-09-16T21:59:19.934Z,7.82
2022-09-16T22:01:49.457Z,7.55
2022-09-16T22:04:20.389Z,7.55
2022-09-16T22:06:49.856Z,8.18
2022-09-16T22:09:18.639Z,6.50
2022-09-16T22:11:47.520Z,7.60
2022-09-16T22:14:16.402Z,7.35
2022-09-16T22:16:45.150Z,8.63
2022-09-16T22:19:15.828Z,6.00
2022-09-16T22:21:46.949Z,5.82
2022-09-16T22:24:16.299Z,6.07
2022-09-16T22:26:45.113Z,7.47
2022-09-16T22:29:14.087Z,8.40
2022-09-16T22:31:42.990Z,6.53
2022-09-16T22:34:11.718Z,7.05
2022-09-16T22:36:40.635Z,5.55
2022-09-16T22:39:14.133Z,6.55
2022-09-16T22:41:42.978Z,5.78
2022-09-16T22:44:11.925Z,6.25
2022-09-16T22:46:42.733Z,7.07
2022-09-16T22:49:11.642Z,5.78
2022-09-16T22:51:40.649Z,5.90
2022-09-16T22:54:12.148Z,7.53
2022-09-16T22:56:41.178Z,6.22
2022-09-16T22:59:18.732Z,7.20
2022-09-16T23:01:47.988Z,7.55
2022-09-16T23:04:17.026Z,6.70
2022-09-16T23:06:45.832Z,6.15
2022-09-16T23:09:15.955Z,6.10
2022-09-16T23:11:44.761Z,5.88
2022-09-16T23:14:15.286Z,7.13
2022-09-16T23:16:44.131Z,7.57
2022-09-16T23:19:13.115Z,6.55
2022-09-16T23:21:42.281Z,5.97
2022-09-16T23:24:13.674Z,7.40
2022-09-16T23:26:44.420Z,6.03
2022-09-16T23:29:14.023Z,5.53
2022-09-16T23:31:43.623Z,5.38
2022-09-16T23:34:16.621Z,5.53
2022-09-16T23:36:45.422Z,5.85
2022-09-16T23:39:15.230Z,6.13
2022-09-16T23:41:46.871Z,5.88
2022-09-16T23:44:16.153Z,5.93
2022-09-16T23:46:44.928Z,6.10
2022-09-16T23:49:16.929Z,6.03
2022-09-16T23:51:45.808Z,5.20
2022-09-16T23:54:15.156Z,5.68
2022-09-16T23:56:45.344Z,5.03
2022-09-16T23:59:14.125Z,5.13
